sensor_id;sensor_type;location;lat;lon;timestamp;temperature;humidity
75161;DHT22;67232;50.096;8.716;2023-06-04T00:02:04;19.10;47.90
75161;DHT22;67232;50.096;8.716;2023-06-04T00:04:29;19.10;48.00
75161;DHT22;67232;50.096;8.716;2023-06-04T00:06:57;19.10;48.10
75161;DHT22;67232;50.096;8.716;2023-06-04T00:09:23;19.10;47.90
75161;DHT22;67232;50.096;8.716;2023-06-04T00:11:51;19.00;48.00
75161;DHT22;67232;50.096;8.716;2023-06-04T00:14:19;18.90;48.20
75161;DHT22;67232;50.096;8.716;2023-06-04T00:16:44;18.90;48.00
75161;DHT22;67232;50.096;8.716;2023-06-04T00:19:12;18.90;47.90
75161;DHT22;67232;50.096;8.716;2023-06-04T00:21:38;18.90;47.80
75161;DHT22;67232;50.096;8.716;2023-06-04T00:24:03;18.90;47.90
75161;DHT22;67232;50.096;8.716;2023-06-04T00:26:29;18.90;47.90
75161;DHT22;67232;50.096;8.716;2023-06-04T00:28:57;18.80;47.60
75161;DHT22;67232;50.096;8.716;2023-06-04T00:31:22;18.80;48.10
75161;DHT22;67232;50.096;8.716;2023-06-04T00:33:49;18.80;47.70
75161;DHT22;67232;50.096;8.716;2023-06-04T00:36:14;18.80;47.70
75161;DHT22;67232;50.096;8.716;2023-06-04T00:38:40;18.80;48.10
75161;DHT22;67232;50.096;8.716;2023-06-04T00:41:06;18.80;48.30
75161;DHT22;67232;50.096;8.716;2023-06-04T00:43:31;18.80;48.50
75161;DHT22;67232;50.096;8.716;2023-06-04T00:46:01;18.80;48.00
75161;DHT22;67232;50.096;8.716;2023-06-04T00:48:28;18.70;48.70
75161;DHT22;67232;50.096;8.716;2023-06-04T00:50:58;18.60;48.80
75161;DHT22;67232;50.096;8.716;2023-06-04T00:53:27;18.60;48.90
75161;DHT22;67232;50.096;8.716;2023-06-04T00:55:53;18.60;48.50
75161;DHT22;67232;50.096;8.716;2023-06-04T00:58:18;18.70;48.50
75161;DHT22;67232;50.096;8.716;2023-06-04T01:01:07;18.50;48.10
75161;DHT22;67232;50.096;8.716;2023-06-04T01:03:38;18.60;48.40
75161;DHT22;67232;50.096;8.716;2023-06-04T01:06:14;18.50;48.60
75161;DHT22;67232;50.096;8.716;2023-06-04T01:08:49;18.50;48.40
75161;DHT22;67232;50.096;8.716;2023-06-04T01:11:32;18.50;48.40
75161;DHT22;67232;50.096;8.716;2023-06-04T01:14:01;18.50;48.20
75161;DHT22;67232;50.096;8.716;2023-06-04T01:16:34;18.50;48.40
75161;DHT22;67232;50.096;8.716;2023-06-04T01:19:04;18.50;48.90
75161;DHT22;67232;50.096;8.716;2023-06-04T01:21:39;18.50;48.30
75161;DHT22;67232;50.096;8.716;2023-06-04T01:24:05;18.50;48.80
75161;DHT22;67232;50.096;8.716;2023-06-04T01:26:33;18.50;49.00
75161;DHT22;67232;50.096;8.716;2023-06-04T01:29:03;18.50;48.70
75161;DHT22;67232;50.096;8.716;2023-06-04T01:31:28;18.50;48.50
75161;DHT22;67232;50.096;8.716;2023-06-04T01:33:58;18.40;48.50
75161;DHT22;67232;50.096;8.716;2023-06-04T01:36:24;18.30;49.30
75161;DHT22;67232;50.096;8.716;2023-06-04T01:38:52;18.30;49.20
75161;DHT22;67232;50.096;8.716;2023-06-04T01:41:17;18.20;49.10
75161;DHT22;67232;50.096;8.716;2023-06-04T01:43:45;18.20;49.60
75161;DHT22;67232;50.096;8.716;2023-06-04T01:46:13;18.10;49.90
75161;DHT22;67232;50.096;8.716;2023-06-04T01:48:38;18.10;49.70
75161;DHT22;67232;50.096;8.716;2023-06-04T01:51:06;18.10;50.20
75161;DHT22;67232;50.096;8.716;2023-06-04T01:53:36;18.00;50.30
75161;DHT22;67232;50.096;8.716;2023-06-04T01:56:04;18.00;50.90
75161;DHT22;67232;50.096;8.716;2023-06-04T01:58:32;17.90;50.50
75161;DHT22;67232;50.096;8.716;2023-06-04T02:00:59;18.00;50.90
75161;DHT22;67232;50.096;8.716;2023-06-04T02:03:27;18.00;51.00
75161;DHT22;67232;50.096;8.716;2023-06-04T02:05:53;18.00;50.60
75161;DHT22;67232;50.096;8.716;2023-06-04T02:08:21;18.00;50.50
75161;DHT22;67232;50.096;8.716;2023-06-04T02:10:47;17.80;50.50
75161;DHT22;67232;50.096;8.716;2023-06-04T02:13:15;17.90;51.00
75161;DHT22;67232;50.096;8.716;2023-06-04T02:15:46;17.90;50.50
75161;DHT22;67232;50.096;8.716;2023-06-04T02:20:41;17.90;51.00
75161;DHT22;67232;50.096;8.716;2023-06-04T02:23:06;17.70;50.60
75161;DHT22;67232;50.096;8.716;2023-06-04T02:25:34;17.60;50.70
75161;DHT22;67232;50.096;8.716;2023-06-04T02:28:00;17.60;50.90
75161;DHT22;67232;50.096;8.716;2023-06-04T02:30:30;17.60;50.80
75161;DHT22;67232;50.096;8.716;2023-06-04T02:32:56;17.60;51.20
75161;DHT22;67232;50.096;8.716;2023-06-04T02:35:21;17.70;51.40
75161;DHT22;67232;50.096;8.716;2023-06-04T02:37:49;17.70;50.90
75161;DHT22;67232;50.096;8.716;2023-06-04T02:40:17;17.80;51.00
75161;DHT22;67232;50.096;8.716;2023-06-04T02:42:42;17.60;51.20
75161;DHT22;67232;50.096;8.716;2023-06-04T02:45:09;17.60;51.50
75161;DHT22;67232;50.096;8.716;2023-06-04T02:47:35;17.60;51.40
75161;DHT22;67232;50.096;8.716;2023-06-04T02:50:03;17.60;51.50
75161;DHT22;67232;50.096;8.716;2023-06-04T02:52:31;17.60;51.40
75161;DHT22;67232;50.096;8.716;2023-06-04T02:54:58;17.60;51.00
75161;DHT22;67232;50.096;8.716;2023-06-04T02:57:23;17.60;50.70
75161;DHT22;67232;50.096;8.716;2023-06-04T02:59:54;17.60;51.30
75161;DHT22;67232;50.096;8.716;2023-06-04T03:02:20;17.60;51.40
75161;DHT22;67232;50.096;8.716;2023-06-04T03:04:46;17.60;51.70
75161;DHT22;67232;50.096;8.716;2023-06-04T03:07:16;17.50;51.20
75161;DHT22;67232;50.096;8.716;2023-06-04T03:09:48;17.50;51.30
75161;DHT22;67232;50.096;8.716;2023-06-04T03:12:14;17.50;51.40
75161;DHT22;67232;50.096;8.716;2023-06-04T03:14:39;17.40;51.80
75161;DHT22;67232;50.096;8.716;2023-06-04T03:17:05;17.30;51.90
75161;DHT22;67232;50.096;8.716;2023-06-04T03:19:40;17.30;51.50
75161;DHT22;67232;50.096;8.716;2023-06-04T03:22:07;17.20;51.90
75161;DHT22;67232;50.096;8.716;2023-06-04T03:24:34;17.30;51.60
75161;DHT22;67232;50.096;8.716;2023-06-04T03:27:01;17.30;51.70
75161;DHT22;67232;50.096;8.716;2023-06-04T03:29:26;17.30;52.20
75161;DHT22;67232;50.096;8.716;2023-06-04T03:31:54;17.20;52.40
75161;DHT22;67232;50.096;8.716;2023-06-04T03:34:20;17.30;51.90
75161;DHT22;67232;50.096;8.716;2023-06-04T03:36:45;17.20;52.10
75161;DHT22;67232;50.096;8.716;2023-06-04T03:39:13;17.20;51.90
75161;DHT22;67232;50.096;8.716;2023-06-04T03:41:39;17.20;52.00
75161;DHT22;67232;50.096;8.716;2023-06-04T03:44:04;17.10;51.90
75161;DHT22;67232;50.096;8.716;2023-06-04T03:46:30;17.10;52.10
75161;DHT22;67232;50.096;8.716;2023-06-04T03:48:58;17.10;51.90
75161;DHT22;67232;50.096;8.716;2023-06-04T03:51:24;17.20;52.40
75161;DHT22;67232;50.096;8.716;2023-06-04T03:53:52;17.10;52.00
75161;DHT22;67232;50.096;8.716;2023-06-04T03:56:18;17.20;52.30
75161;DHT22;67232;50.096;8.716;2023-06-04T03:58:45;17.20;52.40
75161;DHT22;67232;50.096;8.716;2023-06-04T04:01:11;17.20;52.20
75161;DHT22;67232;50.096;8.716;2023-06-04T04:03:37;17.30;52.60
75161;DHT22;67232;50.096;8.716;2023-06-04T04:06:05;17.30;52.20
75161;DHT22;67232;50.096;8.716;2023-06-04T04:08:30;17.20;52.20
75161;DHT22;67232;50.096;8.716;2023-06-04T04:11:00;17.10;52.70
75161;DHT22;67232;50.096;8.716;2023-06-04T04:13:26;17.00;52.50
75161;DHT22;67232;50.096;8.716;2023-06-04T04:15:51;17.10;52.90
75161;DHT22;67232;50.096;8.716;2023-06-04T04:18:19;17.10;53.20
75161;DHT22;67232;50.096;8.716;2023-06-04T04:20:50;17.10;53.10
75161;DHT22;67232;50.096;8.716;2023-06-04T04:23:16;17.10;53.00
75161;DHT22;67232;50.096;8.716;2023-06-04T04:25:43;17.20;53.10
75161;DHT22;67232;50.096;8.716;2023-06-04T04:28:09;17.20;52.80
75161;DHT22;67232;50.096;8.716;2023-06-04T04:30:35;17.20;52.40
75161;DHT22;67232;50.096;8.716;2023-06-04T04:33:04;17.20;52.70
75161;DHT22;67232;50.096;8.716;2023-06-04T04:35:33;17.20;53.20
75161;DHT22;67232;50.096;8.716;2023-06-04T04:37:59;17.20;52.40
75161;DHT22;67232;50.096;8.716;2023-06-04T04:40:28;17.20;52.60
75161;DHT22;67232;50.096;8.716;2023-06-04T04:42:57;17.20;52.30
75161;DHT22;67232;50.096;8.716;2023-06-04T04:45:25;17.30;52.60
75161;DHT22;67232;50.096;8.716;2023-06-04T04:47:51;17.30;52.40
75161;DHT22;67232;50.096;8.716;2023-06-04T04:50:17;17.30;52.70
75161;DHT22;67232;50.096;8.716;2023-06-04T04:52:42;17.40;52.30
75161;DHT22;67232;50.096;8.716;2023-06-04T04:55:10;17.40;51.70
75161;DHT22;67232;50.096;8.716;2023-06-04T04:57:38;17.50;51.80
75161;DHT22;67232;50.096;8.716;2023-06-04T05:00:05;17.50;51.80
75161;DHT22;67232;50.096;8.716;2023-06-04T05:02:35;17.50;52.20
75161;DHT22;67232;50.096;8.716;2023-06-04T05:05:01;17.50;51.60
75161;DHT22;67232;50.096;8.716;2023-06-04T05:07:27;17.50;51.60
75161;DHT22;67232;50.096;8.716;2023-06-04T05:09:53;17.40;51.70
75161;DHT22;67232;50.096;8.716;2023-06-04T05:12:18;17.40;51.60
75161;DHT22;67232;50.096;8.716;2023-06-04T05:14:46;17.50;51.60
75161;DHT22;67232;50.096;8.716;2023-06-04T05:17:12;17.50;51.80
75161;DHT22;67232;50.096;8.716;2023-06-04T05:19:38;17.50;51.50
75161;DHT22;67232;50.096;8.716;2023-06-04T05:22:04;17.50;51.60
75161;DHT22;67232;50.096;8.716;2023-06-04T05:24:30;17.60;51.90
75161;DHT22;67232;50.096;8.716;2023-06-04T05:26:57;17.60;51.60
75161;DHT22;67232;50.096;8.716;2023-06-04T05:29:23;17.80;51.90
75161;DHT22;67232;50.096;8.716;2023-06-04T05:31:49;17.70;51.70
75161;DHT22;67232;50.096;8.716;2023-06-04T05:34:15;17.70;51.70
75161;DHT22;67232;50.096;8.716;2023-06-04T05:36:42;17.70;51.60
75161;DHT22;67232;50.096;8.716;2023-06-04T05:39:09;17.80;51.40
75161;DHT22;67232;50.096;8.716;2023-06-04T05:41:37;17.90;51.50
75161;DHT22;67232;50.096;8.716;2023-06-04T05:44:03;18.00;51.40
75161;DHT22;67232;50.096;8.716;2023-06-04T05:46:31;18.00;51.10
75161;DHT22;67232;50.096;8.716;2023-06-04T05:48:56;18.10;50.70
75161;DHT22;67232;50.096;8.716;2023-06-04T05:51:22;18.10;51.00
75161;DHT22;67232;50.096;8.716;2023-06-04T05:53:50;18.10;50.60
75161;DHT22;67232;50.096;8.716;2023-06-04T05:56:15;18.10;50.30
75161;DHT22;67232;50.096;8.716;2023-06-04T05:58:41;18.20;50.10
75161;DHT22;67232;50.096;8.716;2023-06-04T06:01:07;18.30;50.40
75161;DHT22;67232;50.096;8.716;2023-06-04T06:03:33;18.30;50.50
75161;DHT22;67232;50.096;8.716;2023-06-04T06:05:58;18.40;50.90
75161;DHT22;67232;50.096;8.716;2023-06-04T06:08:26;18.40;50.30
75161;DHT22;67232;50.096;8.716;2023-06-04T06:10:53;18.40;50.50
75161;DHT22;67232;50.096;8.716;2023-06-04T06:13:24;18.50;50.10
75161;DHT22;67232;50.096;8.716;2023-06-04T06:15:50;18.60;50.80
75161;DHT22;67232;50.096;8.716;2023-06-04T06:18:18;18.60;50.20
75161;DHT22;67232;50.096;8.716;2023-06-04T06:20:45;18.70;50.00
75161;DHT22;67232;50.096;8.716;2023-06-04T06:23:13;18.70;50.30
75161;DHT22;67232;50.096;8.716;2023-06-04T06:25:39;18.80;50.00
75161;DHT22;67232;50.096;8.716;2023-06-04T06:28:11;18.90;50.00
75161;DHT22;67232;50.096;8.716;2023-06-04T06:30:37;19.00;50.00
75161;DHT22;67232;50.096;8.716;2023-06-04T06:33:02;19.10;49.20
75161;DHT22;67232;50.096;8.716;2023-06-04T06:35:28;19.00;49.30
75161;DHT22;67232;50.096;8.716;2023-06-04T06:37:53;19.20;48.90
75161;DHT22;67232;50.096;8.716;2023-06-04T06:40:19;19.20;49.20
75161;DHT22;67232;50.096;8.716;2023-06-04T06:42:49;19.30;49.50
75161;DHT22;67232;50.096;8.716;2023-06-04T06:45:20;19.40;49.10
75161;DHT22;67232;50.096;8.716;2023-06-04T06:47:46;19.50;49.10
75161;DHT22;67232;50.096;8.716;2023-06-04T06:50:11;19.50;49.30
75161;DHT22;67232;50.096;8.716;2023-06-04T06:52:37;19.70;48.80
75161;DHT22;67232;50.096;8.716;2023-06-04T06:55:06;19.80;47.70
75161;DHT22;67232;50.096;8.716;2023-06-04T06:57:35;19.70;48.40
75161;DHT22;67232;50.096;8.716;2023-06-04T07:00:00;19.70;47.90
75161;DHT22;67232;50.096;8.716;2023-06-04T07:02:26;19.80;48.00
75161;DHT22;67232;50.096;8.716;2023-06-04T07:04:51;19.90;47.60
75161;DHT22;67232;50.096;8.716;2023-06-04T07:07:19;19.80;47.70
75161;DHT22;67232;50.096;8.716;2023-06-04T07:09:45;19.90;48.70
75161;DHT22;67232;50.096;8.716;2023-06-04T07:12:10;20.10;48.20
75161;DHT22;67232;50.096;8.716;2023-06-04T07:14:36;20.20;47.50
75161;DHT22;67232;50.096;8.716;2023-06-04T07:17:01;20.20;47.10
75161;DHT22;67232;50.096;8.716;2023-06-04T07:19:27;20.40;47.00
75161;DHT22;67232;50.096;8.716;2023-06-04T07:21:55;20.40;47.50
75161;DHT22;67232;50.096;8.716;2023-06-04T07:24:21;20.50;47.00
75161;DHT22;67232;50.096;8.716;2023-06-04T07:26:47;20.50;47.80
75161;DHT22;67232;50.096;8.716;2023-06-04T07:29:13;20.60;47.40
75161;DHT22;67232;50.096;8.716;2023-06-04T07:31:39;20.60;47.40
75161;DHT22;67232;50.096;8.716;2023-06-04T07:34:06;20.70;46.70
75161;DHT22;67232;50.096;8.716;2023-06-04T07:36:32;20.80;47.10
75161;DHT22;67232;50.096;8.716;2023-06-04T07:38:58;20.90;46.20
75161;DHT22;67232;50.096;8.716;2023-06-04T07:41:24;20.90;45.90
75161;DHT22;67232;50.096;8.716;2023-06-04T07:43:51;20.90;46.10
75161;DHT22;67232;50.096;8.716;2023-06-04T07:46:17;21.00;45.60
75161;DHT22;67232;50.096;8.716;2023-06-04T07:48:48;21.00;46.30
75161;DHT22;67232;50.096;8.716;2023-06-04T07:51:13;21.10;46.40
75161;DHT22;67232;50.096;8.716;2023-06-04T07:53:39;21.30;45.50
75161;DHT22;67232;50.096;8.716;2023-06-04T07:56:07;21.30;45.50
75161;DHT22;67232;50.096;8.716;2023-06-04T07:58:35;21.40;45.90
75161;DHT22;67232;50.096;8.716;2023-06-04T08:01:01;21.40;45.90
75161;DHT22;67232;50.096;8.716;2023-06-04T08:03:28;21.50;45.50
75161;DHT22;67232;50.096;8.716;2023-06-04T08:05:57;21.60;44.80
75161;DHT22;67232;50.096;8.716;2023-06-04T08:08:25;21.60;45.00
75161;DHT22;67232;50.096;8.716;2023-06-04T08:10:51;21.60;45.50
75161;DHT22;67232;50.096;8.716;2023-06-04T08:13:16;21.60;45.70
75161;DHT22;67232;50.096;8.716;2023-06-04T08:15:42;21.70;45.60
75161;DHT22;67232;50.096;8.716;2023-06-04T08:18:07;21.80;44.90
75161;DHT22;67232;50.096;8.716;2023-06-04T08:20:33;21.90;45.30
75161;DHT22;67232;50.096;8.716;2023-06-04T08:22:58;21.80;44.50
75161;DHT22;67232;50.096;8.716;2023-06-04T08:25:28;21.90;45.20
75161;DHT22;67232;50.096;8.716;2023-06-04T08:27:56;22.00;46.10
75161;DHT22;67232;50.096;8.716;2023-06-04T08:30:22;22.10;44.70
75161;DHT22;67232;50.096;8.716;2023-06-04T08:32:50;22.20;44.60
75161;DHT22;67232;50.096;8.716;2023-06-04T08:35:16;22.30;44.60
75161;DHT22;67232;50.096;8.716;2023-06-04T08:37:42;22.40;43.70
75161;DHT22;67232;50.096;8.716;2023-06-04T08:40:09;22.50;43.80
75161;DHT22;67232;50.096;8.716;2023-06-04T08:42:42;22.50;44.20
75161;DHT22;67232;50.096;8.716;2023-06-04T08:45:13;22.60;44.10
75161;DHT22;67232;50.096;8.716;2023-06-04T08:47:44;22.60;43.90
75161;DHT22;67232;50.096;8.716;2023-06-04T08:50:18;22.70;43.70
75161;DHT22;67232;50.096;8.716;2023-06-04T08:52:44;22.70;43.90
75161;DHT22;67232;50.096;8.716;2023-06-04T08:55:11;22.80;44.00
75161;DHT22;67232;50.096;8.716;2023-06-04T08:57:39;22.80;43.20
75161;DHT22;67232;50.096;8.716;2023-06-04T09:00:08;23.00;43.50
75161;DHT22;67232;50.096;8.716;2023-06-04T09:02:36;23.20;43.20
75161;DHT22;67232;50.096;8.716;2023-06-04T09:05:06;23.20;43.30
75161;DHT22;67232;50.096;8.716;2023-06-04T09:07:36;23.40;42.90
75161;DHT22;67232;50.096;8.716;2023-06-04T09:10:09;23.50;42.70
75161;DHT22;67232;50.096;8.716;2023-06-04T09:12:42;23.50;42.50
75161;DHT22;67232;50.096;8.716;2023-06-04T09:15:13;23.60;41.30
75161;DHT22;67232;50.096;8.716;2023-06-04T09:17:41;23.50;42.60
75161;DHT22;67232;50.096;8.716;2023-06-04T09:20:07;23.60;41.50
75161;DHT22;67232;50.096;8.716;2023-06-04T09:22:37;23.70;40.40
75161;DHT22;67232;50.096;8.716;2023-06-04T09:25:06;23.70;40.80
75161;DHT22;67232;50.096;8.716;2023-06-04T09:27:41;23.80;39.60
75161;DHT22;67232;50.096;8.716;2023-06-04T09:30:07;23.90;39.60
75161;DHT22;67232;50.096;8.716;2023-06-04T09:32:36;23.90;38.80
75161;DHT22;67232;50.096;8.716;2023-06-04T09:35:12;24.10;40.10
75161;DHT22;67232;50.096;8.716;2023-06-04T09:37:40;24.20;39.70
75161;DHT22;67232;50.096;8.716;2023-06-04T09:40:07;24.20;39.00
75161;DHT22;67232;50.096;8.716;2023-06-04T09:42:49;24.30;38.20
75161;DHT22;67232;50.096;8.716;2023-06-04T09:45:35;24.40;38.40
75161;DHT22;67232;50.096;8.716;2023-06-04T09:48:02;24.40;38.50
75161;DHT22;67232;50.096;8.716;2023-06-04T09:50:32;24.20;38.80
75161;DHT22;67232;50.096;8.716;2023-06-04T09:52:59;24.30;38.20
75161;DHT22;67232;50.096;8.716;2023-06-04T09:55:30;24.40;39.90
75161;DHT22;67232;50.096;8.716;2023-06-04T09:57:57;24.50;38.70
75161;DHT22;67232;50.096;8.716;2023-06-04T10:00:26;24.60;38.40
75161;DHT22;67232;50.096;8.716;2023-06-04T10:02:56;24.60;38.30
75161;DHT22;67232;50.096;8.716;2023-06-04T10:05:24;24.70;37.70
75161;DHT22;67232;50.096;8.716;2023-06-04T10:07:51;24.80;37.60
75161;DHT22;67232;50.096;8.716;2023-06-04T10:10:25;24.80;36.80
75161;DHT22;67232;50.096;8.716;2023-06-04T10:13:07;24.80;37.00
75161;DHT22;67232;50.096;8.716;2023-06-04T10:15:35;25.00;36.70
75161;DHT22;67232;50.096;8.716;2023-06-04T10:18:02;25.00;36.60
75161;DHT22;67232;50.096;8.716;2023-06-04T10:20:30;25.00;36.20
75161;DHT22;67232;50.096;8.716;2023-06-04T10:22:58;25.00;37.40
75161;DHT22;67232;50.096;8.716;2023-06-04T10:25:26;25.10;36.70
75161;DHT22;67232;50.096;8.716;2023-06-04T10:27:53;25.10;36.50
75161;DHT22;67232;50.096;8.716;2023-06-04T10:30:18;25.10;36.50
75161;DHT22;67232;50.096;8.716;2023-06-04T10:32:46;25.20;36.90
75161;DHT22;67232;50.096;8.716;2023-06-04T10:35:14;25.20;37.40
75161;DHT22;67232;50.096;8.716;2023-06-04T10:37:41;25.30;36.60
75161;DHT22;67232;50.096;8.716;2023-06-04T10:40:07;25.20;36.10
75161;DHT22;67232;50.096;8.716;2023-06-04T10:42:38;25.30;36.60
75161;DHT22;67232;50.096;8.716;2023-06-04T10:45:05;25.30;37.10
75161;DHT22;67232;50.096;8.716;2023-06-04T10:47:33;25.40;36.70
75161;DHT22;67232;50.096;8.716;2023-06-04T10:50:12;25.50;37.00
75161;DHT22;67232;50.096;8.716;2023-06-04T10:52:39;25.60;36.60
75161;DHT22;67232;50.096;8.716;2023-06-04T10:55:15;25.60;36.80
75161;DHT22;67232;50.096;8.716;2023-06-04T10:57:58;25.50;36.20
75161;DHT22;67232;50.096;8.716;2023-06-04T11:00:37;25.70;37.60
75161;DHT22;67232;50.096;8.716;2023-06-04T11:03:05;25.70;36.40
75161;DHT22;67232;50.096;8.716;2023-06-04T11:05:50;25.80;36.20
75161;DHT22;67232;50.096;8.716;2023-06-04T11:08:25;25.70;36.20
75161;DHT22;67232;50.096;8.716;2023-06-04T11:10:51;25.80;36.20
75161;DHT22;67232;50.096;8.716;2023-06-04T11:13:23;25.80;36.00
75161;DHT22;67232;50.096;8.716;2023-06-04T11:15:50;25.80;35.80
75161;DHT22;67232;50.096;8.716;2023-06-04T11:18:17;25.70;36.20
75161;DHT22;67232;50.096;8.716;2023-06-04T11:21:03;25.80;35.80
75161;DHT22;67232;50.096;8.716;2023-06-04T11:23:33;25.80;36.60
75161;DHT22;67232;50.096;8.716;2023-06-04T11:25:58;25.90;35.90
75161;DHT22;67232;50.096;8.716;2023-06-04T11:28:27;25.90;35.60
75161;DHT22;67232;50.096;8.716;2023-06-04T11:30:58;26.00;36.20
75161;DHT22;67232;50.096;8.716;2023-06-04T11:33:28;26.10;35.70
75161;DHT22;67232;50.096;8.716;2023-06-04T11:35:56;26.10;35.90
75161;DHT22;67232;50.096;8.716;2023-06-04T11:38:21;26.10;35.00
75161;DHT22;67232;50.096;8.716;2023-06-04T11:40:59;26.10;35.30
75161;DHT22;67232;50.096;8.716;2023-06-04T11:43:30;26.00;35.10
75161;DHT22;67232;50.096;8.716;2023-06-04T11:45:57;26.10;34.90
75161;DHT22;67232;50.096;8.716;2023-06-04T11:48:23;26.00;34.90
75161;DHT22;67232;50.096;8.716;2023-06-04T11:50:49;26.10;37.00
75161;DHT22;67232;50.096;8.716;2023-06-04T11:53:17;26.10;35.20
75161;DHT22;67232;50.096;8.716;2023-06-04T11:55:45;26.10;35.20
75161;DHT22;67232;50.096;8.716;2023-06-04T11:58:13;26.20;35.00
75161;DHT22;67232;50.096;8.716;2023-06-04T12:00:40;26.20;35.10
75161;DHT22;67232;50.096;8.716;2023-06-04T12:03:08;26.40;34.30
75161;DHT22;67232;50.096;8.716;2023-06-04T12:05:33;26.30;34.70
75161;DHT22;67232;50.096;8.716;2023-06-04T12:08:06;26.30;33.90
75161;DHT22;67232;50.096;8.716;2023-06-04T12:10:37;26.40;34.60
75161;DHT22;67232;50.096;8.716;2023-06-04T12:13:03;26.40;33.80
75161;DHT22;67232;50.096;8.716;2023-06-04T12:15:31;26.30;33.10
75161;DHT22;67232;50.096;8.716;2023-06-04T12:17:57;26.30;34.30
75161;DHT22;67232;50.096;8.716;2023-06-04T12:20:37;26.30;33.50
75161;DHT22;67232;50.096;8.716;2023-06-04T12:23:04;26.40;33.60
75161;DHT22;67232;50.096;8.716;2023-06-04T12:25:31;26.40;32.90
75161;DHT22;67232;50.096;8.716;2023-06-04T12:27:57;26.30;32.30
75161;DHT22;67232;50.096;8.716;2023-06-04T12:30:23;26.30;32.90
75161;DHT22;67232;50.096;8.716;2023-06-04T12:32:49;26.50;33.90
75161;DHT22;67232;50.096;8.716;2023-06-04T12:35:16;26.40;33.70
75161;DHT22;67232;50.096;8.716;2023-06-04T12:37:44;26.40;33.20
75161;DHT22;67232;50.096;8.716;2023-06-04T12:40:10;26.50;34.00
75161;DHT22;67232;50.096;8.716;2023-06-04T12:42:35;26.50;33.20
75161;DHT22;67232;50.096;8.716;2023-06-04T12:45:01;26.50;33.40
75161;DHT22;67232;50.096;8.716;2023-06-04T12:47:27;26.50;33.70
75161;DHT22;67232;50.096;8.716;2023-06-04T12:49:52;26.60;34.50
75161;DHT22;67232;50.096;8.716;2023-06-04T12:52:18;26.60;34.30
75161;DHT22;67232;50.096;8.716;2023-06-04T12:54:46;26.60;34.10
75161;DHT22;67232;50.096;8.716;2023-06-04T12:57:11;26.70;34.20
75161;DHT22;67232;50.096;8.716;2023-06-04T12:59:37;26.70;34.20
75161;DHT22;67232;50.096;8.716;2023-06-04T13:02:03;26.70;33.90
75161;DHT22;67232;50.096;8.716;2023-06-04T13:04:28;26.70;33.60
75161;DHT22;67232;50.096;8.716;2023-06-04T13:06:54;26.60;33.50
75161;DHT22;67232;50.096;8.716;2023-06-04T13:09:24;26.60;34.70
75161;DHT22;67232;50.096;8.716;2023-06-04T13:11:50;26.60;34.20
75161;DHT22;67232;50.096;8.716;2023-06-04T13:14:16;26.70;34.40
75161;DHT22;67232;50.096;8.716;2023-06-04T13:16:42;26.60;33.70
75161;DHT22;67232;50.096;8.716;2023-06-04T13:19:11;26.60;33.80
75161;DHT22;67232;50.096;8.716;2023-06-04T13:21:36;26.60;33.80
75161;DHT22;67232;50.096;8.716;2023-06-04T13:24:02;26.50;34.00
75161;DHT22;67232;50.096;8.716;2023-06-04T13:26:28;26.60;34.10
75161;DHT22;67232;50.096;8.716;2023-06-04T13:28:53;26.50;34.50
75161;DHT22;67232;50.096;8.716;2023-06-04T13:31:19;26.50;34.00
75161;DHT22;67232;50.096;8.716;2023-06-04T13:33:44;26.40;33.70
75161;DHT22;67232;50.096;8.716;2023-06-04T13:36:10;26.50;33.80
75161;DHT22;67232;50.096;8.716;2023-06-04T13:38:38;26.50;34.10
75161;DHT22;67232;50.096;8.716;2023-06-04T13:41:07;26.40;34.30
75161;DHT22;67232;50.096;8.716;2023-06-04T13:43:33;26.50;34.10
75161;DHT22;67232;50.096;8.716;2023-06-04T13:45:59;26.50;33.90
75161;DHT22;67232;50.096;8.716;2023-06-04T13:48:24;26.30;35.20
75161;DHT22;67232;50.096;8.716;2023-06-04T13:50:50;26.40;33.60
75161;DHT22;67232;50.096;8.716;2023-06-04T13:53:15;26.40;33.80
75161;DHT22;67232;50.096;8.716;2023-06-04T13:55:43;26.40;33.20
75161;DHT22;67232;50.096;8.716;2023-06-04T13:58:11;26.50;32.60
75161;DHT22;67232;50.096;8.716;2023-06-04T14:00:42;26.40;33.80
75161;DHT22;67232;50.096;8.716;2023-06-04T14:03:08;26.30;33.70
75161;DHT22;67232;50.096;8.716;2023-06-04T14:05:35;26.30;34.50
75161;DHT22;67232;50.096;8.716;2023-06-04T14:08:01;26.40;33.80
75161;DHT22;67232;50.096;8.716;2023-06-04T14:10:28;26.40;33.80
75161;DHT22;67232;50.096;8.716;2023-06-04T14:12:53;26.40;33.90
75161;DHT22;67232;50.096;8.716;2023-06-04T14:15:19;26.30;33.80
75161;DHT22;67232;50.096;8.716;2023-06-04T14:17:47;26.30;34.60
75161;DHT22;67232;50.096;8.716;2023-06-04T14:20:15;26.30;34.00
75161;DHT22;67232;50.096;8.716;2023-06-04T14:22:41;26.30;33.60
75161;DHT22;67232;50.096;8.716;2023-06-04T14:25:07;26.30;33.70
75161;DHT22;67232;50.096;8.716;2023-06-04T14:27:34;26.30;33.70
75161;DHT22;67232;50.096;8.716;2023-06-04T14:30:03;26.20;33.90
75161;DHT22;67232;50.096;8.716;2023-06-04T14:32:29;26.20;33.80
75161;DHT22;67232;50.096;8.716;2023-06-04T14:34:55;26.10;34.30
75161;DHT22;67232;50.096;8.716;2023-06-04T14:37:20;26.10;34.00
75161;DHT22;67232;50.096;8.716;2023-06-04T14:39:46;26.10;33.60
75161;DHT22;67232;50.096;8.716;2023-06-04T14:42:13;26.10;33.80
75161;DHT22;67232;50.096;8.716;2023-06-04T14:44:40;26.20;33.70
75161;DHT22;67232;50.096;8.716;2023-06-04T14:47:06;26.10;33.50
75161;DHT22;67232;50.096;8.716;2023-06-04T14:49:34;26.00;33.90
75161;DHT22;67232;50.096;8.716;2023-06-04T14:51:59;25.90;33.90
75161;DHT22;67232;50.096;8.716;2023-06-04T14:54:28;25.90;33.50
75161;DHT22;67232;50.096;8.716;2023-06-04T14:56:55;26.00;33.20
75161;DHT22;67232;50.096;8.716;2023-06-04T14:59:20;26.00;33.20
75161;DHT22;67232;50.096;8.716;2023-06-04T15:01:46;26.00;33.30
75161;DHT22;67232;50.096;8.716;2023-06-04T15:04:12;26.00;33.80
75161;DHT22;67232;50.096;8.716;2023-06-04T15:06:37;25.90;33.60
75161;DHT22;67232;50.096;8.716;2023-06-04T15:09:03;25.90;33.30
75161;DHT22;67232;50.096;8.716;2023-06-04T15:11:29;25.90;33.30
75161;DHT22;67232;50.096;8.716;2023-06-04T15:13:55;25.90;33.20
75161;DHT22;67232;50.096;8.716;2023-06-04T15:16:21;25.70;33.30
75161;DHT22;67232;50.096;8.716;2023-06-04T15:18:47;25.60;33.40
75161;DHT22;67232;50.096;8.716;2023-06-04T15:21:13;25.70;33.40
75161;DHT22;67232;50.096;8.716;2023-06-04T15:23:39;25.80;33.50
75161;DHT22;67232;50.096;8.716;2023-06-04T15:26:05;25.80;33.60
75161;DHT22;67232;50.096;8.716;2023-06-04T15:28:30;25.90;33.30
75161;DHT22;67232;50.096;8.716;2023-06-04T15:30:56;25.80;33.30
75161;DHT22;67232;50.096;8.716;2023-06-04T15:33:24;25.80;33.10
75161;DHT22;67232;50.096;8.716;2023-06-04T15:35:50;25.70;33.20